createdAt,value
2023-05-01T00:00:00.607Z,11.9
2023-05-01T00:01:00.553Z,12
2023-05-01T00:02:00.515Z,11.9
2023-05-01T00:03:00.649Z,11.9
2023-05-01T00:04:00.669Z,12
2023-05-01T00:05:00.585Z,12
2023-05-01T00:06:00.503Z,12
2023-05-01T00:07:00.461Z,12
2023-05-01T00:08:00.477Z,12
2023-05-01T00:09:00.464Z,11.9
2023-05-01T00:10:00.467Z,12
2023-05-01T00:11:00.472Z,12
2023-05-01T00:12:00.470Z,12
2023-05-01T00:13:00.476Z,12
2023-05-01T00:14:00.474Z,12
2023-05-01T00:15:00.484Z,12
2023-05-01T00:16:00.527Z,12
2023-05-01T00:17:00.472Z,12
2023-05-01T00:18:00.550Z,12
2023-05-01T00:19:00.483Z,12
2023-05-01T00:20:00.519Z,12
2023-05-01T00:21:00.483Z,12
2023-05-01T00:22:00.486Z,12
2023-05-01T00:23:00.476Z,12
2023-05-01T00:24:00.495Z,12
2023-05-01T00:25:00.481Z,12
2023-05-01T00:26:00.493Z,12
2023-05-01T00:27:00.491Z,12
2023-05-01T00:28:00.484Z,12
2023-05-01T00:29:00.484Z,12
2023-05-01T00:30:00.498Z,12
2023-05-01T00:31:00.498Z,11.9
2023-05-01T00:32:00.518Z,12
2023-05-01T00:33:00.518Z,12
2023-05-01T00:34:00.490Z,12
2023-05-01T00:35:00.506Z,11.9
2023-05-01T00:36:00.504Z,11.9
2023-05-01T00:37:00.494Z,11.9
2023-05-01T00:38:00.494Z,11.9
2023-05-01T00:39:00.505Z,11.9
2023-05-01T00:40:00.517Z,11.9
2023-05-01T00:41:00.517Z,12
2023-05-01T00:42:00.510Z,11.9
2023-05-01T00:43:00.501Z,11.9
2023-05-01T00:44:00.523Z,11.9
2023-05-01T00:45:00.567Z,12
2023-05-01T00:46:00.547Z,11.9
2023-05-01T00:47:00.512Z,11.9
2023-05-01T00:48:00.619Z,11.9
2023-05-01T00:49:00.521Z,11.9
2023-05-01T00:50:00.541Z,11.9
2023-05-01T00:51:00.514Z,11.9
2023-05-01T00:52:00.540Z,11.9
2023-05-01T00:53:00.526Z,11.9
2023-05-01T00:54:00.591Z,11.9
2023-05-01T00:55:00.576Z,11.9
2023-05-01T00:56:00.545Z,11.9
2023-05-01T00:57:00.526Z,11.9
2023-05-01T00:58:00.523Z,11.9
2023-05-01T00:59:01.797Z,11.9
2023-05-01T01:00:00.667Z,11.9
2023-05-01T01:01:00.558Z,11.9
2023-05-01T01:02:00.537Z,11.9
2023-05-01T01:03:00.586Z,11.9
2023-05-01T01:04:00.538Z,11.9
2023-05-01T01:05:00.547Z,11.9
2023-05-01T01:06:00.554Z,11.9
2023-05-01T01:07:00.532Z,11.9
2023-05-01T01:08:00.526Z,11.9
2023-05-01T01:09:00.518Z,11.9
2023-05-01T01:10:00.570Z,11.9
2023-05-01T01:11:00.529Z,11.9
2023-05-01T01:12:00.528Z,11.9
2023-05-01T01:13:00.561Z,11.9
2023-05-01T01:14:00.535Z,11.8
2023-05-01T01:15:00.541Z,11.8
2023-05-01T01:16:00.530Z,11.8
2023-05-01T01:17:00.585Z,11.8
2023-05-01T01:18:00.621Z,11.8
2023-05-01T01:19:00.551Z,11.8
2023-05-01T01:20:00.599Z,11.8
2023-05-01T01:21:00.555Z,11.8
2023-05-01T01:22:00.548Z,11.8
2023-05-01T01:23:00.540Z,11.8
2023-05-01T01:24:00.548Z,11.8
2023-05-01T01:25:00.561Z,11.8
2023-05-01T01:26:00.588Z,11.8
2023-05-01T01:27:00.556Z,11.8
2023-05-01T01:28:00.578Z,11.8
2023-05-01T01:29:00.556Z,11.8
2023-05-01T01:30:00.687Z,11.8
2023-05-01T01:31:00.592Z,11.8
2023-05-01T01:32:00.555Z,11.8
2023-05-01T01:33:00.590Z,11.8
2023-05-01T01:34:00.548Z,11.8
2023-05-01T01:35:00.551Z,11.8
2023-05-01T01:36:00.564Z,11.8
2023-05-01T01:37:00.557Z,11.8
2023-05-01T01:38:00.569Z,11.8
2023-05-01T01:39:00.559Z,11.8
2023-05-01T01:40:00.627Z,11.8
2023-05-01T01:41:00.559Z,11.8
2023-05-01T01:42:00.566Z,11.8
2023-05-01T01:43:00.577Z,11.8
2023-05-01T01:44:00.578Z,11.8
2023-05-01T01:45:00.596Z,11.7
2023-05-01T01:46:00.616Z,11.8
2023-05-01T01:47:00.573Z,11.7
2023-05-01T01:48:00.631Z,11.7
2023-05-01T01:49:00.572Z,11.7
2023-05-01T01:50:00.595Z,11.6
2023-05-01T01:51:00.577Z,11.7
2023-05-01T01:52:00.602Z,11.7
2023-05-01T01:53:00.600Z,11.7
2023-05-01T01:54:00.593Z,11.7
2023-05-01T01:55:00.581Z,11.7
2023-05-01T01:56:03.033Z,11.7
2023-05-01T01:57:00.611Z,11.7
2023-05-01T01:58:00.581Z,11.7
2023-05-01T01:59:00.582Z,11.7
2023-05-01T02:00:01.947Z,11.7
2023-05-01T02:01:01.738Z,11.6
2023-05-01T02:02:01.824Z,11.6
2023-05-01T02:03:01.832Z,11.6
2023-05-01T02:04:01.861Z,11.6
2023-05-01T02:05:01.851Z,11.6
2023-05-01T02:06:01.847Z,11.6
2023-05-01T02:07:01.751Z,11.6
2023-05-01T02:08:01.760Z,11.5
2023-05-01T02:09:01.761Z,11.5
2023-05-01T02:10:01.818Z,11.5
2023-05-01T02:11:02.369Z,11.5
2023-05-01T02:12:01.784Z,11.5
2023-05-01T02:13:01.776Z,11.5
2023-05-01T02:14:01.738Z,11.5
2023-05-01T02:15:01.786Z,11.5
2023-05-01T02:16:01.817Z,11.5
2023-05-01T02:17:01.751Z,11.4
2023-05-01T02:18:01.838Z,11.4
2023-05-01T02:19:01.748Z,11.4
2023-05-01T02:20:01.836Z,11.4
2023-05-01T02:21:01.802Z,11.4
2023-05-01T02:22:01.770Z,11.4
2023-05-01T02:23:01.754Z,11.4
2023-05-01T02:24:01.761Z,11.4
2023-05-01T02:25:01.863Z,11.4
2023-05-01T02:26:01.776Z,11.3
2023-05-01T02:27:01.776Z,11.3
2023-05-01T02:28:01.792Z,11.3
2023-05-01T02:29:01.767Z,11.3
2023-05-01T02:30:01.810Z,11.3
2023-05-01T02:31:01.780Z,11.3
2023-05-01T02:32:01.908Z,11.3
2023-05-01T02:33:01.826Z,11.3
2023-05-01T02:34:01.776Z,11.3
2023-05-01T02:35:01.804Z,11.3
2023-05-01T02:36:01.765Z,11.3
2023-05-01T02:37:01.772Z,11.2
2023-05-01T02:38:01.766Z,11.2
2023-05-01T02:39:01.774Z,11.2
2023-05-01T02:40:01.790Z,11.2
2023-05-01T02:41:01.772Z,11.2
2023-05-01T02:42:01.765Z,11.2
2023-05-01T02:43:01.784Z,11.2
2023-05-01T02:44:01.794Z,11.2
2023-05-01T02:45:01.841Z,11.2
2023-05-01T02:46:01.852Z,11.2
2023-05-01T02:47:01.893Z,11.2
2023-05-01T02:48:01.789Z,11.2
2023-05-01T02:49:01.802Z,11.2
2023-05-01T02:50:01.802Z,11.2
2023-05-01T02:51:01.783Z,11.2
2023-05-01T02:52:01.814Z,11.2
2023-05-01T02:53:01.777Z,11.1
2023-05-01T02:54:01.798Z,11.1
2023-05-01T02:55:01.783Z,11.1
2023-05-01T02:56:01.786Z,11.1
2023-05-01T02:57:01.801Z,11.1
2023-05-01T02:58:01.790Z,11.1
2023-05-01T02:59:01.787Z,11.1
2023-05-01T03:00:01.894Z,11.1
2023-05-01T03:01:01.843Z,11.1
2023-05-01T03:02:01.838Z,11.1
2023-05-01T03:03:01.816Z,11
2023-05-01T03:04:01.823Z,11
2023-05-01T03:05:01.803Z,11
2023-05-01T03:06:01.846Z,10.9
2023-05-01T03:07:01.831Z,10.9
2023-05-01T03:08:01.802Z,10.9
2023-05-01T03:09:01.805Z,10.9
2023-05-01T03:10:01.869Z,10.9
2023-05-01T03:11:01.807Z,10.9
2023-05-01T03:12:01.844Z,10.9
2023-05-01T03:13:01.821Z,10.9
2023-05-01T03:14:01.806Z,10.9
2023-05-01T03:15:01.845Z,10.9
2023-05-01T03:16:01.824Z,10.9
2023-05-01T03:17:01.826Z,10.9
2023-05-01T03:18:01.886Z,10.9
2023-05-01T03:19:01.824Z,10.8
2023-05-01T03:20:01.861Z,10.9
2023-05-01T03:21:01.820Z,10.9
2023-05-01T03:22:01.815Z,10.9
2023-05-01T03:23:01.815Z,10.9
2023-05-01T03:24:01.818Z,10.8
2023-05-01T03:25:01.866Z,10.8
2023-05-01T03:26:01.834Z,10.8
2023-05-01T03:27:01.821Z,10.8
2023-05-01T03:28:01.841Z,10.8
2023-05-01T03:29:01.825Z,10.8
2023-05-01T03:30:01.902Z,10.8
2023-05-01T03:31:01.840Z,10.8
2023-05-01T03:32:01.925Z,10.8
2023-05-01T03:33:01.836Z,10.8
2023-05-01T03:34:01.823Z,10.8
2023-05-01T03:35:01.966Z,10.8
2023-05-01T03:36:01.820Z,10.7
2023-05-01T03:37:01.833Z,10.7
2023-05-01T03:38:01.861Z,10.7
2023-05-01T03:39:01.828Z,10.7
2023-05-01T03:40:01.840Z,10.7
2023-05-01T03:41:01.838Z,10.7
2023-05-01T03:42:01.831Z,10.7
2023-05-01T03:43:01.841Z,10.7
2023-05-01T03:44:01.836Z,10.7
2023-05-01T03:45:01.835Z,10.6
2023-05-01T03:46:01.903Z,10.6
2023-05-01T03:47:01.877Z,10.6
2023-05-01T03:48:01.891Z,10.6
2023-05-01T03:49:01.833Z,10.6
2023-05-01T03:50:01.868Z,10.6
2023-05-01T03:51:01.887Z,10.6
2023-05-01T03:52:01.837Z,10.6
2023-05-01T03:53:01.851Z,10.6
2023-05-01T03:54:01.849Z,10.6
2023-05-01T03:55:01.851Z,10.6
2023-05-01T03:56:01.843Z,10.5
2023-05-01T03:57:01.866Z,10.6
2023-05-01T03:58:01.846Z,10.5
2023-05-01T03:59:01.848Z,10.5
2023-05-01T04:00:01.969Z,10.5
2023-05-01T04:01:01.864Z,10.4
2023-05-01T04:02:01.945Z,10.4
2023-05-01T04:03:02.206Z,10.4
2023-05-01T04:04:01.977Z,10.4
2023-05-01T04:05:01.862Z,10.3
2023-05-01T04:06:01.909Z,10.3
2023-05-01T04:07:01.912Z,10.3
2023-05-01T04:08:01.865Z,10.3
2023-05-01T04:09:01.864Z,10.3
2023-05-01T04:10:01.936Z,10.3
2023-05-01T04:11:01.866Z,10.2
2023-05-01T04:12:01.881Z,10.3
2023-05-01T04:13:01.901Z,10.2
2023-05-01T04:14:01.874Z,10.2
2023-05-01T04:15:01.915Z,10.2
2023-05-01T04:16:01.906Z,10.2
2023-05-01T04:17:01.886Z,10.2
2023-05-01T04:18:01.967Z,10.2
2023-05-01T04:19:01.868Z,10.2
2023-05-01T04:20:01.919Z,10.2
2023-05-01T04:21:01.893Z,10.2
2023-05-01T04:22:01.872Z,10.2
2023-05-01T04:23:01.871Z,10.2
2023-05-01T04:24:01.888Z,10.2
2023-05-01T04:25:01.914Z,10.2
2023-05-01T04:26:01.877Z,10.2
2023-05-01T04:27:01.892Z,10.3
2023-05-01T04:28:01.901Z,10.2
2023-05-01T04:29:01.894Z,10.3
2023-05-01T04:30:02.023Z,10.3
2023-05-01T04:31:01.907Z,10.3
2023-05-01T04:32:01.981Z,10.3
2023-05-01T04:33:01.973Z,10.3
2023-05-01T04:34:01.882Z,10.3
2023-05-01T04:35:01.915Z,10.3
2023-05-01T04:36:01.905Z,10.2
2023-05-01T04:37:01.906Z,10.2
2023-05-01T04:38:01.889Z,10.2
2023-05-01T04:39:01.882Z,10.2
2023-05-01T04:40:01.912Z,10.3
2023-05-01T04:41:01.921Z,10.2
2023-05-01T04:42:01.909Z,10.2
2023-05-01T04:43:01.923Z,10.2
2023-05-01T04:44:01.893Z,10.2
2023-05-01T04:45:01.900Z,10.2
2023-05-01T04:46:01.904Z,10.3
2023-05-01T04:47:02.015Z,10.3
2023-05-01T04:48:01.938Z,10.3
2023-05-01T04:49:01.897Z,10.3
2023-05-01T04:50:02.004Z,10.3
2023-05-01T04:51:01.922Z,10.3
2023-05-01T04:52:01.900Z,10.3
2023-05-01T04:53:01.919Z,10.3
2023-05-01T04:54:01.914Z,10.3
2023-05-01T04:55:01.919Z,10.3
2023-05-01T04:56:01.925Z,10.3
2023-05-01T04:57:01.907Z,10.3
2023-05-01T04:58:01.918Z,10.3
2023-05-01T04:59:01.904Z,10.3
2023-05-01T05:00:01.987Z,10.4
2023-05-01T05:01:01.988Z,10.4
2023-05-01T05:02:02.068Z,10.4
2023-05-01T05:03:02.057Z,10.3
2023-05-01T05:04:02.158Z,10.3
2023-05-01T05:05:01.926Z,10.3
2023-05-01T05:06:01.987Z,10.3
2023-05-01T05:07:01.929Z,10.3
2023-05-01T05:08:01.927Z,10.3
2023-05-01T05:09:01.933Z,10.3
2023-05-01T05:10:01.996Z,10.3
2023-05-01T05:11:01.924Z,10.3
2023-05-01T05:12:01.942Z,10.4
2023-05-01T05:13:01.950Z,10.4
2023-05-01T05:14:01.927Z,10.4
2023-05-01T05:15:01.958Z,10.4
2023-05-01T05:16:01.990Z,10.4
2023-05-01T05:17:01.934Z,10.4
2023-05-01T05:18:02.018Z,10.4
2023-05-01T05:19:01.965Z,10.4
2023-05-01T05:20:02.024Z,10.5
2023-05-01T05:21:02.110Z,10.5
2023-05-01T05:22:01.963Z,10.5
2023-05-01T05:23:01.965Z,10.5
2023-05-01T05:24:01.945Z,10.6
2023-05-01T05:25:01.976Z,10.6
2023-05-01T05:26:01.989Z,10.6
2023-05-01T05:27:01.972Z,10.6
2023-05-01T05:28:02.031Z,10.6
2023-05-01T05:29:02.003Z,10.7
2023-05-01T05:30:02.025Z,10.7
2023-05-01T05:31:01.965Z,10.7
2023-05-01T05:32:02.034Z,10.8
2023-05-01T05:33:02.013Z,10.8
2023-05-01T05:34:01.971Z,10.8
2023-05-01T05:35:01.996Z,10.8
2023-05-01T05:36:01.975Z,10.8
2023-05-01T05:37:01.988Z,10.8
2023-05-01T05:38:02.010Z,10.8
2023-05-01T05:39:02.041Z,10.9
2023-05-01T05:40:01.984Z,10.9
2023-05-01T05:41:01.960Z,10.9
2023-05-01T05:42:01.952Z,10.9
2023-05-01T05:43:01.967Z,10.9
2023-05-01T05:44:01.961Z,10.9
2023-05-01T05:45:02.032Z,10.9
2023-05-01T05:46:02.127Z,10.9
2023-05-01T05:47:01.966Z,10.9
2023-05-01T05:48:02.016Z,10.9
2023-05-01T05:49:01.968Z,10.9
2023-05-01T05:50:01.995Z,10.9
2023-05-01T05:51:01.974Z,11
2023-05-01T05:52:01.980Z,11
2023-05-01T05:53:01.963Z,11.1
2023-05-01T05:54:00.528Z,11.1
2023-05-01T05:55:00.528Z,11.1
2023-05-01T05:56:00.535Z,11.1
2023-05-01T05:57:00.525Z,11.2
2023-05-01T05:58:00.550Z,11.2
2023-05-01T05:59:00.534Z,11.2
2023-05-01T06:00:00.524Z,11.3
2023-05-01T06:01:00.535Z,11.3
2023-05-01T06:02:00.605Z,11.4
2023-05-01T06:03:00.648Z,11.4
2023-05-01T06:04:00.539Z,11.4
2023-05-01T06:05:00.595Z,11.4
2023-05-01T06:06:00.692Z,11.5
2023-05-01T06:07:00.680Z,11.5
2023-05-01T06:08:00.545Z,11.6
2023-05-01T06:09:00.542Z,11.6
2023-05-01T06:10:00.544Z,11.6
2023-05-01T06:11:00.534Z,11.6
2023-05-01T06:12:00.539Z,11.6
2023-05-01T06:13:13.564Z,11.6
2023-05-01T06:14:00.564Z,11.7
2023-05-01T06:15:00.563Z,11.7
2023-05-01T06:16:00.649Z,11.7
2023-05-01T06:17:00.550Z,11.7
2023-05-01T06:18:00.626Z,11.8
2023-05-01T06:19:00.554Z,11.8
2023-05-01T06:20:00.574Z,11.8
2023-05-01T06:21:00.546Z,11.9
2023-05-01T06:22:00.549Z,11.9
2023-05-01T06:23:00.557Z,11.9
2023-05-01T06:24:00.567Z,11.9
2023-05-01T06:25:00.551Z,12
2023-05-01T06:26:00.566Z,12.1
2023-05-01T06:27:01.435Z,12.1
2023-05-01T06:28:00.575Z,12.2
2023-05-01T06:29:00.568Z,12.2
2023-05-01T06:30:00.582Z,12.3
2023-05-01T06:31:00.673Z,12.3
2023-05-01T06:32:00.725Z,12.4
2023-05-01T06:33:00.604Z,12.4
2023-05-01T06:34:00.554Z,12.5
2023-05-01T06:35:00.585Z,12.5
2023-05-01T06:36:00.582Z,12.6
2023-05-01T06:37:00.573Z,12.6
2023-05-01T06:38:00.565Z,12.7
2023-05-01T06:39:00.585Z,12.8
2023-05-01T06:40:00.582Z,12.8
2023-05-01T06:41:00.567Z,12.8
2023-05-01T06:42:00.562Z,12.8
2023-05-01T06:43:00.562Z,12.8
2023-05-01T06:44:00.565Z,12.8
2023-05-01T06:45:00.576Z,12.9
2023-05-01T06:46:00.589Z,12.9
2023-05-01T06:47:00.633Z,13
2023-05-01T06:48:00.655Z,13.1
2023-05-01T06:49:00.577Z,13.1
2023-05-01T06:50:02.914Z,13.1
2023-05-01T06:51:00.579Z,13.1
2023-05-01T06:52:00.581Z,13.1
2023-05-01T06:53:00.574Z,13.2
2023-05-01T06:54:00.571Z,13.2
2023-05-01T06:55:00.620Z,13.2
2023-05-01T06:56:00.593Z,13.3
2023-05-01T06:57:00.579Z,13.4
2023-05-01T06:58:02.746Z,13.4
2023-05-01T06:59:00.599Z,13.4
2023-05-01T07:00:00.573Z,13.4
2023-05-01T07:01:00.620Z,13.5
2023-05-01T07:02:00.614Z,13.6
2023-05-01T07:03:00.621Z,13.6
2023-05-01T07:04:00.595Z,13.6
2023-05-01T07:05:00.595Z,13.6
2023-05-01T07:06:00.638Z,13.6
2023-05-01T07:07:00.583Z,13.6
2023-05-01T07:08:01.814Z,13.7
2023-05-01T07:09:00.636Z,13.7
2023-05-01T07:10:00.774Z,13.7
2023-05-01T07:11:00.610Z,13.7
2023-05-01T07:12:00.623Z,13.6
2023-05-01T07:13:00.602Z,13.7
2023-05-01T07:14:00.605Z,13.7
2023-05-01T07:15:00.615Z,13.7
2023-05-01T07:16:00.635Z,13.8
2023-05-01T07:17:00.991Z,13.8
2023-05-01T07:18:00.656Z,13.8
2023-05-01T07:19:00.625Z,13.8
2023-05-01T07:20:00.625Z,13.8
2023-05-01T07:21:00.609Z,13.8
2023-05-01T07:22:00.609Z,13.8
2023-05-01T07:23:00.612Z,13.8
2023-05-01T07:24:00.628Z,13.8
2023-05-01T07:25:00.639Z,13.8
2023-05-01T07:26:00.646Z,13.8
2023-05-01T07:27:00.623Z,13.9
2023-05-01T07:28:00.612Z,13.9
2023-05-01T07:29:00.650Z,14
2023-05-01T07:30:00.639Z,14.1
2023-05-01T07:31:00.625Z,14.1
2023-05-01T07:32:00.677Z,14.1
2023-05-01T07:33:00.663Z,14.1
2023-05-01T07:34:00.649Z,14.1
2023-05-01T07:35:00.614Z,14.1
2023-05-01T07:36:00.676Z,14.1
2023-05-01T07:37:00.647Z,14.1
2023-05-01T07:38:00.649Z,14.1
2023-05-01T07:39:00.625Z,14.2
2023-05-01T07:40:00.677Z,14.2
2023-05-01T07:41:00.623Z,14.2
2023-05-01T07:42:00.636Z,14.2
2023-05-01T07:43:00.641Z,14.3
2023-05-01T07:44:00.624Z,14.4
2023-05-01T07:45:00.634Z,14.4
2023-05-01T07:46:00.869Z,14.4
2023-05-01T07:47:00.638Z,14.5
2023-05-01T07:48:00.698Z,14.6
2023-05-01T07:49:00.652Z,14.6
2023-05-01T07:50:00.643Z,14.6
2023-05-01T07:51:00.661Z,14.6
2023-05-01T07:52:00.640Z,14.6
2023-05-01T07:53:00.643Z,14.6
2023-05-01T07:54:00.659Z,14.6
2023-05-01T07:55:00.672Z,14.5
2023-05-01T07:56:00.645Z,14.4
2023-05-01T07:57:00.652Z,14.4
2023-05-01T07:58:00.678Z,14.3
2023-05-01T07:59:00.660Z,14.3
2023-05-01T08:00:00.714Z,14.3
2023-05-01T08:01:00.659Z,14.4
2023-05-01T08:02:00.682Z,14.4
2023-05-01T08:03:00.808Z,14.5
2023-05-01T08:04:00.744Z,14.6
2023-05-01T08:05:00.869Z,14.6
2023-05-01T08:06:00.760Z,14.7
2023-05-01T08:07:00.648Z,14.7
2023-05-01T08:08:00.652Z,14.7
2023-05-01T08:09:00.658Z,14.8
2023-05-01T08:10:01.039Z,14.8
2023-05-01T08:11:00.667Z,14.9
2023-05-01T08:12:00.659Z,14.9
2023-05-01T08:13:00.653Z,14.9
2023-05-01T08:14:00.674Z,15
2023-05-01T08:15:00.678Z,15.1
2023-05-01T08:16:00.714Z,15
2023-05-01T08:17:00.671Z,15
2023-05-01T08:18:00.745Z,15.1
2023-05-01T08:19:00.673Z,15.1
2023-05-01T08:20:00.708Z,15.1
2023-05-01T08:21:00.667Z,15.1
2023-05-01T08:22:00.673Z,15.1
2023-05-01T08:23:00.668Z,15.1
2023-05-01T08:24:00.711Z,15
2023-05-01T08:25:00.698Z,15
2023-05-01T08:26:00.690Z,15
2023-05-01T08:27:00.692Z,15.1
2023-05-01T08:28:00.690Z,15.1
2023-05-01T08:29:00.691Z,15.1
2023-05-01T08:30:00.748Z,15.1
2023-05-01T08:31:00.729Z,15.1
2023-05-01T08:32:01.048Z,15.1
2023-05-01T08:33:00.720Z,15.1
2023-05-01T08:34:00.731Z,15.1
2023-05-01T08:35:00.684Z,15.2
2023-05-01T08:36:00.690Z,15.2
2023-05-01T08:37:00.694Z,15.2
2023-05-01T08:38:00.716Z,15.3
2023-05-01T08:39:00.709Z,15.4
2023-05-01T08:40:00.740Z,15.4
2023-05-01T08:41:00.704Z,15.4
2023-05-01T08:42:00.688Z,15.4
2023-05-01T08:43:00.703Z,15.4
2023-05-01T08:44:00.698Z,15.5
2023-05-01T08:45:00.750Z,15.5
2023-05-01T08:46:00.694Z,15.5
2023-05-01T08:47:00.746Z,15.5
2023-05-01T08:48:00.725Z,15.4
2023-05-01T08:49:00.708Z,15.4
2023-05-01T08:50:00.719Z,15.5
2023-05-01T08:51:00.731Z,15.5
2023-05-01T08:52:00.696Z,15.5
2023-05-01T08:53:00.697Z,15.4
2023-05-01T08:54:00.724Z,15.4
2023-05-01T08:55:00.696Z,15.4
2023-05-01T08:56:00.699Z,15.4
2023-05-01T08:57:00.718Z,15.4
2023-05-01T08:58:00.704Z,15.4
2023-05-01T08:59:00.707Z,15.5
2023-05-01T09:00:00.734Z,15.6
2023-05-01T09:01:00.721Z,15.6
2023-05-01T09:02:00.805Z,15.7
2023-05-01T09:03:00.766Z,15.7
2023-05-01T09:04:00.745Z,15.6
2023-05-01T09:05:00.732Z,15.7
2023-05-01T09:06:00.764Z,15.7
2023-05-01T09:07:00.719Z,15.8
2023-05-01T09:08:00.747Z,15.8
2023-05-01T09:09:00.730Z,15.8
2023-05-01T09:10:00.746Z,15.8
2023-05-01T09:11:00.717Z,15.9
2023-05-01T09:12:00.712Z,15.9
2023-05-01T09:13:00.750Z,16
2023-05-01T09:14:00.727Z,16
2023-05-01T09:15:00.723Z,16
2023-05-01T09:16:00.795Z,15.9
2023-05-01T09:17:00.719Z,15.9
2023-05-01T09:18:03.278Z,15.9
2023-05-01T09:19:00.724Z,15.9
2023-05-01T09:20:00.765Z,16
2023-05-01T09:21:00.730Z,16.1
2023-05-01T09:22:00.722Z,16.1
2023-05-01T09:23:00.740Z,16.1
2023-05-01T09:24:00.763Z,16.2
2023-05-01T09:25:00.746Z,16.2
2023-05-01T09:26:00.736Z,16.2
2023-05-01T09:27:00.741Z,16.2
2023-05-01T09:28:00.746Z,16.3
2023-05-01T09:29:00.741Z,16.2
2023-05-01T09:30:00.767Z,16.2
2023-05-01T09:31:00.746Z,16.2
2023-05-01T09:32:00.803Z,16.2
2023-05-01T09:33:00.808Z,16.2
2023-05-01T09:34:00.743Z,16.1
2023-05-01T09:35:00.762Z,16
2023-05-01T09:36:00.756Z,15.8
2023-05-01T09:37:00.760Z,15.8
2023-05-01T09:38:00.770Z,15.8
2023-05-01T09:39:00.749Z,15.7
2023-05-01T09:40:00.790Z,15.6
2023-05-01T09:41:00.751Z,15.6
2023-05-01T09:42:00.764Z,15.5
2023-05-01T09:43:00.741Z,15.4
2023-05-01T09:44:00.759Z,15.4
2023-05-01T09:45:00.771Z,15.4
2023-05-01T09:46:00.779Z,15.4
2023-05-01T09:47:00.755Z,15.4
2023-05-01T09:48:00.821Z,15.3
2023-05-01T09:49:00.773Z,15.2
2023-05-01T09:50:00.798Z,15.1
2023-05-01T09:51:00.763Z,15.1
2023-05-01T09:52:00.774Z,15.1
2023-05-01T09:53:00.760Z,15
2023-05-01T09:54:00.780Z,14.9
2023-05-01T09:55:00.772Z,14.9
2023-05-01T09:56:00.761Z,14.8
2023-05-01T09:57:00.769Z,14.7
2023-05-01T09:58:00.808Z,14.6
2023-05-01T09:59:00.769Z,14.4
2023-05-01T10:00:00.986Z,14.3
2023-05-01T10:01:00.828Z,14.2
2023-05-01T10:02:00.850Z,14.1
2023-05-01T10:03:00.877Z,14
2023-05-01T10:04:00.876Z,13.9
2023-05-01T10:05:00.794Z,13.9
2023-05-01T10:06:00.832Z,13.9
2023-05-01T10:07:00.832Z,13.9
2023-05-01T10:08:00.807Z,13.9
2023-05-01T10:09:00.821Z,13.9
2023-05-01T10:10:01.931Z,13.8
2023-05-01T10:11:00.788Z,13.9
2023-05-01T10:12:00.813Z,13.8
2023-05-01T10:13:00.798Z,13.8
2023-05-01T10:14:00.817Z,13.8
2023-05-01T10:15:07.874Z,13.8
2023-05-01T10:16:00.786Z,13.6
2023-05-01T10:17:00.843Z,13.6
2023-05-01T10:18:00.830Z,13.6
2023-05-01T10:19:02.354Z,13.6
2023-05-01T10:20:00.864Z,13.6
2023-05-01T10:21:00.788Z,13.5
2023-05-01T10:22:00.809Z,13.4
2023-05-01T10:23:00.797Z,13.4
2023-05-01T10:24:00.792Z,13.4
2023-05-01T10:25:00.842Z,13.4
2023-05-01T10:26:02.556Z,13.4
2023-05-01T10:27:00.816Z,13.4
2023-05-01T10:28:00.803Z,13.4
2023-05-01T10:29:00.826Z,13.4
2023-05-01T10:30:00.948Z,13.4
2023-05-01T10:31:00.862Z,13.5
2023-05-01T10:32:00.979Z,13.5
2023-05-01T10:33:00.878Z,13.6
2023-05-01T10:34:00.826Z,13.6
2023-05-01T10:35:00.870Z,13.6
2023-05-01T10:36:00.834Z,13.7
2023-05-01T10:37:00.817Z,13.8
2023-05-01T10:38:00.871Z,13.9
2023-05-01T10:39:00.827Z,13.9
2023-05-01T10:40:00.889Z,13.9
2023-05-01T10:41:00.815Z,14
2023-05-01T10:42:00.809Z,14.1
2023-05-01T10:43:00.825Z,14.2
2023-05-01T10:44:00.820Z,14.2
2023-05-01T10:45:00.823Z,14.4
2023-05-01T10:46:00.846Z,14.4
2023-05-01T10:47:00.828Z,14.5
2023-05-01T10:48:00.847Z,14.6
2023-05-01T10:49:00.831Z,14.7
2023-05-01T10:50:00.977Z,14.8
2023-05-01T10:51:00.821Z,14.8
2023-05-01T10:52:00.865Z,14.8
2023-05-01T10:53:00.832Z,14.9
2023-05-01T10:54:00.860Z,14.9
2023-05-01T10:55:00.832Z,15
2023-05-01T10:56:00.839Z,15.1
2023-05-01T10:57:00.824Z,15.2
2023-05-01T10:58:00.862Z,15.2
2023-05-01T10:59:00.833Z,15.3
2023-05-01T11:00:00.911Z,15.3
2023-05-01T11:01:00.842Z,15.3
2023-05-01T11:02:00.884Z,15.4
2023-05-01T11:03:00.855Z,15.4
2023-05-01T11:04:00.849Z,15.4
2023-05-01T11:05:01.117Z,15.6
2023-05-01T11:06:01.335Z,15.6
2023-05-01T11:07:00.894Z,15.6
2023-05-01T11:08:00.828Z,15.6
2023-05-01T11:09:00.855Z,15.7
2023-05-01T11:10:00.857Z,15.8
2023-05-01T11:11:00.856Z,15.8
2023-05-01T11:12:00.839Z,15.6
2023-05-01T11:13:00.840Z,15.6
2023-05-01T11:14:00.854Z,15.7
2023-05-01T11:15:00.863Z,15.7
2023-05-01T11:16:00.892Z,15.6
2023-05-01T11:17:00.864Z,15.6
2023-05-01T11:18:00.907Z,15.6
2023-05-01T11:19:00.854Z,15.6
2023-05-01T11:20:00.877Z,15.6
2023-05-01T11:21:00.874Z,15.6
2023-05-01T11:22:00.869Z,15.6
2023-05-01T11:23:00.857Z,15.7
2023-05-01T11:24:00.872Z,15.8
2023-05-01T11:25:00.890Z,15.8
2023-05-01T11:26:00.863Z,15.9
2023-05-01T11:27:00.859Z,16.1
2023-05-01T11:28:00.872Z,16.1
2023-05-01T11:29:00.865Z,16.1
2023-05-01T11:30:00.899Z,16.1
2023-05-01T11:31:00.868Z,16.1
2023-05-01T11:32:00.998Z,16
2023-05-01T11:33:00.989Z,16.1
2023-05-01T11:34:00.898Z,16.1
2023-05-01T11:35:00.890Z,16.1
2023-05-01T11:36:00.893Z,16.2
2023-05-01T11:37:00.946Z,16.2
2023-05-01T11:38:00.878Z,16.2
2023-05-01T11:39:00.889Z,16.2
2023-05-01T11:40:00.898Z,16.2
2023-05-01T11:41:00.907Z,16.3
2023-05-01T11:42:00.919Z,16.4
2023-05-01T11:43:00.892Z,16.6
2023-05-01T11:44:00.883Z,16.8
2023-05-01T11:45:00.940Z,16.8
2023-05-01T11:46:00.897Z,16.8
2023-05-01T11:47:00.884Z,16.8
2023-05-01T11:48:03.648Z,16.8
2023-05-01T11:49:00.894Z,16.8
2023-05-01T11:50:01.005Z,16.8
2023-05-01T11:51:00.898Z,16.8
2023-05-01T11:52:00.909Z,16.8
2023-05-01T11:53:00.920Z,16.6
2023-05-01T11:54:00.862Z,16.6
2023-05-01T11:55:01.246Z,16.6
2023-05-01T11:56:00.821Z,16.5
2023-05-01T11:57:00.809Z,16.6
2023-05-01T11:58:00.782Z,16.7
2023-05-01T11:59:00.717Z,16.8
2023-05-01T12:00:00.719Z,16.9
2023-05-01T12:01:00.669Z,17
2023-05-01T12:02:00.678Z,17.1
2023-05-01T12:03:00.757Z,17.2
2023-05-01T12:04:00.639Z,17.2
2023-05-01T12:05:01.078Z,17.2
2023-05-01T12:06:00.547Z,17.2
2023-05-01T12:07:00.499Z,17.2
2023-05-01T12:08:00.491Z,17.2
2023-05-01T12:09:00.491Z,17.2
2023-05-01T12:10:00.496Z,17.2
2023-05-01T12:11:00.492Z,17.2
2023-05-01T12:12:00.479Z,17.2
2023-05-01T12:13:00.474Z,17.2
2023-05-01T12:14:00.487Z,17.2
2023-05-01T12:15:00.822Z,17.1
2023-05-01T12:16:00.485Z,17
2023-05-01T12:17:00.529Z,16.9
2023-05-01T12:18:00.507Z,16.7
2023-05-01T12:19:00.492Z,16.6
2023-05-01T12:20:00.552Z,16.5
2023-05-01T12:21:00.494Z,16.4
2023-05-01T12:22:00.491Z,16.4
2023-05-01T12:23:00.494Z,16.3
2023-05-01T12:24:00.509Z,16.3
2023-05-01T12:25:00.763Z,16.2
2023-05-01T12:26:00.498Z,16.2
2023-05-01T12:27:00.498Z,16.2
2023-05-01T12:28:00.495Z,16.2
2023-05-01T12:29:00.509Z,16.2
2023-05-01T12:30:00.546Z,16.2
2023-05-01T12:31:01.681Z,16.3
2023-05-01T12:32:00.585Z,16.4
2023-05-01T12:33:00.537Z,16.5
2023-05-01T12:34:00.503Z,16.4
2023-05-01T12:35:00.907Z,16.4
2023-05-01T12:36:00.509Z,16.4
2023-05-01T12:37:00.494Z,16.4
2023-05-01T12:38:00.507Z,16.4
2023-05-01T12:39:00.510Z,16.5
2023-05-01T12:40:00.517Z,16.6
2023-05-01T12:41:00.518Z,16.6
2023-05-01T12:42:00.516Z,16.7
2023-05-01T12:43:00.502Z,16.8
2023-05-01T12:44:00.511Z,16.9
2023-05-01T12:45:00.837Z,16.9
2023-05-01T12:46:00.586Z,17
2023-05-01T12:47:00.572Z,16.9
2023-05-01T12:48:00.562Z,16.9
2023-05-01T12:49:00.539Z,16.9
2023-05-01T12:50:00.719Z,17
2023-05-01T12:51:00.518Z,17
2023-05-01T12:52:00.562Z,16.9
2023-05-01T12:53:00.522Z,16.9
2023-05-01T12:54:00.514Z,16.8
2023-05-01T12:55:00.512Z,16.8
2023-05-01T12:56:00.517Z,16.8
2023-05-01T12:57:00.525Z,16.8
2023-05-01T12:58:00.513Z,16.9
2023-05-01T12:59:00.516Z,16.9
2023-05-01T13:00:01.087Z,17
2023-05-01T13:01:00.537Z,17.1
2023-05-01T13:02:00.645Z,17.1
2023-05-01T13:03:00.595Z,17
2023-05-01T13:04:00.598Z,17
2023-05-01T13:05:00.546Z,17.1
2023-05-01T13:06:00.612Z,17.1
2023-05-01T13:07:00.517Z,17.1
2023-05-01T13:08:00.521Z,17.2
2023-05-01T13:09:00.540Z,17.4
2023-05-01T13:10:01.071Z,17.4
2023-05-01T13:11:00.542Z,17.5
2023-05-01T13:12:00.547Z,17.5
2023-05-01T13:13:00.561Z,17.6
2023-05-01T13:14:00.533Z,17.6
2023-05-01T13:15:00.560Z,17.6
2023-05-01T13:16:00.554Z,17.8
2023-05-01T13:17:00.558Z,17.9
2023-05-01T13:18:00.565Z,17.9
2023-05-01T13:19:00.542Z,17.9
2023-05-01T13:20:01.065Z,18
2023-05-01T13:21:00.549Z,18
2023-05-01T13:22:00.536Z,18.1